Brownsville, Minnesota
Current Conditions -  °F | °C
As of 2:40 AM on Sunday 23 Nov 2014 (Local Time) from KLSE Reporting Station
Overcast Overcast  
Wind Chill: 52°   Ceiling: 1400
Heat Index: 52°   Visibility: 9mi
Dew Point: 48°   Wind: 14mph
Humidity: 86%   Direction: 170°S
Pressure: 29.58"   Gusts: NA
Location:  43.69°N, 91.28°W
Report Text: KLSE 230840Z AUTO 17012KT 9SM OVC014 11/09 A2958 RMK AO2 T01110089
Loading
Personal Weather Stations






























Interactive Weather Map New forecast layout! Learn more

10-Day Weather Forecast

Advertisements
Track Severe Weather on mobile